Time;durP1;ratioP1;P1;durP2;ratioP2;P2;SDS_P1;SDS_P2;PMS_P1;PMS_P2;Temp;Humidity;BMP_temperature;BMP_pressure;BME280_temperature;BME280_humidity;BME280_pressure;Samples;Min_cycle;Max_cycle;Signal;HPM_P1;HPM_P2
2023/03/20 00:01:25;;;;;;;13.23;6.38;;;;;;;;;;5003309;28;20927;-85
2023/03/20 00:03:51;;;;;;;11.50;6.93;;;;;;;;;;5014889;28;20132;-84
2023/03/20 00:06:19;;;;;;;11.65;6.60;;;;;;;;;;5016267;28;20052;-84
2023/03/20 00:08:46;;;;;;;9.82;6.38;;;;;;;;;;5015004;28;20106;-84
2023/03/20 00:11:35;;;;;;;11.02;6.00;;;;;;;;;;4984557;28;20190;-83
2023/03/20 00:14:01;;;;;;;12.50;5.88;;;;;;;;;;4992996;28;20045;-84
2023/03/20 00:16:30;;;;;;;8.65;5.63;;;;;;;;;;4991907;28;20048;-84
2023/03/20 00:18:57;;;;;;;8.57;5.90;;;;;;;;;;4993014;28;20045;-84
2023/03/20 00:21:23;;;;;;;10.30;5.97;;;;;;;;;;4994943;28;20045;-84
2023/03/20 00:23:49;;;;;;;11.07;5.68;;;;;;;;;;5008221;28;20080;-84
2023/03/20 00:26:19;;;;;;;9.60;5.80;;;;;;;;;;5011036;28;20048;-84
2023/03/20 00:28:46;;;;;;;8.77;5.18;;;;;;;;;;5008933;28;20500;-84
2023/03/20 00:31:23;;;;;;;12.88;6.43;;;;;;;;;;5015807;28;20116;-84
2023/03/20 00:33:49;;;;;;;7.75;5.60;;;;;;;;;;4995464;28;21589;-84
2023/03/20 00:36:15;;;;;;;12.70;7.05;;;;;;;;;;5000286;28;20604;-83
2023/03/20 00:38:42;;;;;;;11.82;6.25;;;;;;;;;;5014355;28;20047;-83
2023/03/20 00:41:28;;;;;;;12.38;6.00;;;;;;;;;;5023844;28;20049;-82
2023/03/20 00:44:14;;;;;;;11.00;5.68;;;;;;;;;;5013823;28;20044;-84
2023/03/20 00:46:41;;;;;;;10.05;5.45;;;;;;;;;;4992316;28;20076;-84
2023/03/20 00:49:09;;;;;;;8.50;4.65;;;;;;;;;;5008441;28;20049;-84
2023/03/20 00:51:36;;;;;;;8.45;4.15;;;;;;;;;;5001631;28;20044;-83
2023/03/20 00:54:05;;;;;;;5.75;4.55;;;;;;;;;;4988116;28;20045;-84
2023/03/20 00:56:34;;;;;;;7.25;3.92;;;;;;;;;;5007114;28;20056;-83
2023/03/20 00:59:02;;;;;;;8.98;4.80;;;;;;;;;;5007072;28;20103;-83
2023/03/20 01:01:29;;;;;;;10.30;3.95;;;;;;;;;;5012470;28;20072;-84
2023/03/20 01:03:55;;;;;;;6.82;4.40;;;;;;;;;;5009758;28;20037;-83
2023/03/20 01:06:21;;;;;;;7.65;4.38;;;;;;;;;;5007578;28;20106;-83
2023/03/20 01:08:47;;;;;;;6.40;5.07;;;;;;;;;;4980174;28;20041;-83
2023/03/20 01:11:14;;;;;;;8.07;4.55;;;;;;;;;;5011197;28;20110;-82
2023/03/20 01:13:40;;;;;;;8.30;5.10;;;;;;;;;;4992154;28;20099;-83
2023/03/20 01:16:17;;;;;;;8.50;4.60;;;;;;;;;;5004404;28;20040;-83
2023/03/20 01:18:43;;;;;;;8.75;5.30;;;;;;;;;;4998468;28;20043;-83
2023/03/20 01:21:09;;;;;;;8.90;5.82;;;;;;;;;;5012527;28;20048;-82
2023/03/20 01:23:35;;;;;;;9.25;5.43;;;;;;;;;;4996142;28;20757;-83
2023/03/20 01:26:01;;;;;;;8.27;4.97;;;;;;;;;;5004531;28;20053;-83
2023/03/20 01:28:29;;;;;;;16.10;6.90;;;;;;;;;;4995193;28;20041;-83
2023/03/20 01:30:55;;;;;;;10.82;6.15;;;;;;;;;;4992276;28;21677;-83
2023/03/20 01:33:22;;;;;;;10.93;7.07;;;;;;;;;;4992201;28;20056;-83
2023/03/20 01:35:50;;;;;;;12.70;6.70;;;;;;;;;;5008653;28;20401;-83
2023/03/20 01:38:19;;;;;;;7.97;6.13;;;;;;;;;;5001595;28;20144;-83
2023/03/20 01:40:52;;;;;;;15.85;7.03;;;;;;;;;;4993006;28;20041;-83
2023/03/20 01:43:19;;;;;;;14.18;6.63;;;;;;;;;;4994818;28;20084;-83
2023/03/20 01:45:58;;;;;;;11.25;6.82;;;;;;;;;;4990990;28;20596;-83
2023/03/20 01:48:26;;;;;;;9.80;6.32;;;;;;;;;;4995258;28;20611;-82
2023/03/20 01:50:52;;;;;;;9.00;6.28;;;;;;;;;;5007480;28;20189;-82
2023/03/20 01:53:21;;;;;;;9.65;5.68;;;;;;;;;;4992520;28;20124;-83
2023/03/20 01:55:48;;;;;;;14.63;6.85;;;;;;;;;;4993100;28;20513;-83
2023/03/20 01:58:17;;;;;;;9.23;5.60;;;;;;;;;;5007193;28;20127;-83
2023/03/20 02:00:43;;;;;;;12.02;6.90;;;;;;;;;;4990192;28;20053;-82
2023/03/20 02:03:09;;;;;;;9.90;5.72;;;;;;;;;;4995254;28;20083;-83
2023/03/20 02:05:37;;;;;;;13.18;6.70;;;;;;;;;;4978321;28;20742;-83
2023/03/20 02:08:18;;;;;;;10.65;6.10;;;;;;;;;;5006263;28;20164;-84
2023/03/20 02:10:46;;;;;;;11.15;5.93;;;;;;;;;;5005763;28;20144;-84
2023/03/20 02:13:13;;;;;;;13.35;6.05;;;;;;;;;;4995173;28;20124;-82
2023/03/20 02:15:59;;;;;;;6.88;4.45;;;;;;;;;;5008623;28;20038;-83
2023/03/20 02:18:25;;;;;;;7.28;5.20;;;;;;;;;;5014265;28;20042;-83
2023/03/20 02:21:04;;;;;;;8.73;5.13;;;;;;;;;;5015075;28;20045;-82
2023/03/20 02:23:44;;;;;;;9.68;5.65;;;;;;;;;;5000465;28;20127;-80
2023/03/20 02:26:13;;;;;;;11.55;6.05;;;;;;;;;;4993103;28;20049;-82
2023/03/20 02:28:39;;;;;;;11.43;5.97;;;;;;;;;;4988219;28;20673;-82
2023/03/20 02:31:17;;;;;;;11.50;5.75;;;;;;;;;;5013066;28;20142;-83
2023/03/20 02:34:02;;;;;;;14.30;6.20;;;;;;;;;;5005119;28;20184;-83
2023/03/20 02:36:34;;;;;;;9.57;6.63;;;;;;;;;;5009958;28;20037;-83
2023/03/20 02:39:12;;;;;;;16.90;6.18;;;;;;;;;;5001599;28;20742;-82
2023/03/20 02:41:42;;;;;;;18.50;7.18;;;;;;;;;;4988009;28;20087;-83
2023/03/20 02:44:08;;;;;;;14.07;6.20;;;;;;;;;;5000110;28;20052;-83
2023/03/20 02:46:53;;;;;;;11.77;5.57;;;;;;;;;;5003096;28;20052;-82
2023/03/20 02:49:35;;;;;;;11.98;7.20;;;;;;;;;;4997929;28;20046;-83
2023/03/20 02:52:10;;;;;;;14.25;7.22;;;;;;;;;;4982015;28;21523;-83
2023/03/20 02:54:39;;;;;;;15.75;7.25;;;;;;;;;;5025912;28;20542;-82
2023/03/20 02:57:11;;;;;;;16.55;7.93;;;;;;;;;;4985080;28;20216;-83
2023/03/20 02:59:47;;;;;;;19.48;8.23;;;;;;;;;;4981301;28;20045;-83
2023/03/20 03:02:18;;;;;;;17.58;8.45;;;;;;;;;;4986623;28;20509;-83
2023/03/20 03:04:49;;;;;;;18.58;9.18;;;;;;;;;;5000306;28;20888;-83
2023/03/20 03:07:20;;;;;;;14.65;8.48;;;;;;;;;;5007962;28;20052;-83
2023/03/20 03:09:50;;;;;;;16.63;8.10;;;;;;;;;;4994719;28;20051;-82
2023/03/20 03:12:19;;;;;;;16.35;8.45;;;;;;;;;;4999265;28;20040;-84
2023/03/20 03:14:47;;;;;;;18.33;8.68;;;;;;;;;;4996197;28;20059;-83
2023/03/20 03:17:14;;;;;;;19.35;8.43;;;;;;;;;;4997748;28;20504;-83
2023/03/20 03:19:42;;;;;;;17.77;8.40;;;;;;;;;;4997498;28;20139;-83
2023/03/20 03:22:09;;;;;;;18.40;8.18;;;;;;;;;;5012925;28;20063;-83
2023/03/20 03:24:42;;;;;;;29.00;10.30;;;;;;;;;;5000681;28;20099;-83
2023/03/20 03:27:24;;;;;;;17.80;9.07;;;;;;;;;;5014187;28;20045;-84
2023/03/20 03:29:53;;;;;;;15.82;8.50;;;;;;;;;;4998437;28;20074;-83
2023/03/20 03:32:39;;;;;;;16.60;8.65;;;;;;;;;;4996102;28;20038;-83
2023/03/20 03:35:06;;;;;;;14.63;8.85;;;;;;;;;;5000208;28;20075;-83
2023/03/20 03:37:42;;;;;;;18.23;9.27;;;;;;;;;;5005157;28;20240;-83
2023/03/20 03:40:10;;;;;;;17.92;9.52;;;;;;;;;;4989656;28;20041;-83
2023/03/20 03:42:39;;;;;;;20.42;8.77;;;;;;;;;;5014065;28;20374;-83
2023/03/20 03:45:10;;;;;;;18.77;10.18;;;;;;;;;;4996107;28;20125;-83
2023/03/20 03:47:40;;;;;;;25.00;9.32;;;;;;;;;;4994813;28;21458;-83
2023/03/20 03:50:12;;;;;;;20.27;8.70;;;;;;;;;;5010969;28;20506;-83
2023/03/20 03:52:39;;;;;;;24.23;11.50;;;;;;;;;;4999489;28;20041;-82
2023/03/20 03:55:09;;;;;;;19.95;8.73;;;;;;;;;;4991158;28;20068;-82
2023/03/20 03:57:56;;;;;;;21.58;9.70;;;;;;;;;;5008785;28;20060;-82
2023/03/20 04:00:24;;;;;;;17.73;9.18;;;;;;;;;;4991037;28;20045;-82
2023/03/20 04:02:52;;;;;;;23.40;9.88;;;;;;;;;;4991691;28;20449;-80
2023/03/20 04:05:20;;;;;;;17.67;9.25;;;;;;;;;;5015817;28;20049;-81
2023/03/20 04:07:46;;;;;;;21.60;9.98;;;;;;;;;;4998579;28;20075;-82
2023/03/20 04:10:13;;;;;;;19.48;10.45;;;;;;;;;;4997480;28;20175;-82
2023/03/20 04:12:40;;;;;;;23.25;9.98;;;;;;;;;;4991785;28;20045;-82
2023/03/20 04:15:07;;;;;;;19.48;10.13;;;;;;;;;;4994859;28;21502;-82
2023/03/20 04:17:33;;;;;;;21.50;9.93;;;;;;;;;;4986623;28;20037;-83
2023/03/20 04:20:00;;;;;;;22.00;9.32;;;;;;;;;;4994500;28;20752;-83
2023/03/20 04:22:26;;;;;;;20.55;9.57;;;;;;;;;;5005337;28;20216;-82
2023/03/20 04:24:52;;;;;;;21.23;9.32;;;;;;;;;;4982339;28;20103;-82
2023/03/20 04:27:18;;;;;;;19.35;9.13;;;;;;;;;;4991649;28;20335;-82
2023/03/20 04:29:45;;;;;;;21.75;10.13;;;;;;;;;;5005814;28;20042;-83
2023/03/20 04:32:11;;;;;;;18.02;10.27;;;;;;;;;;4990957;28;20053;-82
2023/03/20 04:34:37;;;;;;;22.83;9.75;;;;;;;;;;4977614;28;20127;-83
2023/03/20 04:37:06;;;;;;;18.95;9.90;;;;;;;;;;5008179;28;20037;-82
2023/03/20 04:39:32;;;;;;;26.45;10.32;;;;;;;;;;4978116;28;20049;-83
2023/03/20 04:41:58;;;;;;;22.85;10.65;;;;;;;;;;5009519;28;20049;-83
2023/03/20 04:44:24;;;;;;;16.10;10.43;;;;;;;;;;4990345;28;20810;-82
2023/03/20 04:46:50;;;;;;;20.23;10.07;;;;;;;;;;4994395;28;20126;-83
2023/03/20 04:49:16;;;;;;;21.08;10.13;;;;;;;;;;4989702;28;20045;-83
2023/03/20 04:51:42;;;;;;;20.27;10.43;;;;;;;;;;4992197;28;20883;-83
2023/03/20 04:54:08;;;;;;;26.80;10.40;;;;;;;;;;4991272;28;20654;-83
2023/03/20 04:56:35;;;;;;;18.15;9.77;;;;;;;;;;4995521;28;20903;-83
2023/03/20 04:59:01;;;;;;;23.52;10.98;;;;;;;;;;5016123;28;20052;-84
2023/03/20 05:01:27;;;;;;;17.48;10.02;;;;;;;;;;4988304;28;20036;-83
2023/03/20 05:03:59;;;;;;;18.60;10.07;;;;;;;;;;5005598;28;21016;-83
2023/03/20 05:06:25;;;;;;;20.75;9.82;;;;;;;;;;5010046;28;20513;-83
2023/03/20 05:08:52;;;;;;;17.05;9.77;;;;;;;;;;4993849;28;20055;-83
2023/03/20 05:11:18;;;;;;;18.52;10.25;;;;;;;;;;5025232;28;20052;-83
2023/03/20 05:13:44;;;;;;;20.20;10.02;;;;;;;;;;4995505;28;20133;-82
2023/03/20 05:16:10;;;;;;;17.42;10.25;;;;;;;;;;5008247;28;20481;-82
2023/03/20 05:18:36;;;;;;;20.42;9.55;;;;;;;;;;4997063;28;20044;-82
2023/03/20 05:21:03;;;;;;;20.00;10.07;;;;;;;;;;5001585;28;20160;-82
2023/03/20 05:23:29;;;;;;;22.77;9.75;;;;;;;;;;5001530;28;20477;-83
2023/03/20 05:25:55;;;;;;;17.13;9.55;;;;;;;;;;4999109;28;21661;-82
2023/03/20 05:28:21;;;;;;;20.55;9.90;;;;;;;;;;4982849;28;20579;-83
2023/03/20 05:30:48;;;;;;;21.88;8.32;;;;;;;;;;5015715;28;20484;-82
2023/03/20 05:33:14;;;;;;;18.13;9.55;;;;;;;;;;4989040;28;20041;-83
2023/03/20 05:35:40;;;;;;;21.35;9.93;;;;;;;;;;5017456;28;20046;-82
2023/03/20 05:38:06;;;;;;;17.40;8.93;;;;;;;;;;5017417;28;20385;-83
2023/03/20 05:40:32;;;;;;;20.25;10.77;;;;;;;;;;4983608;28;20098;-83
2023/03/20 05:42:58;;;;;;;19.13;10.20;;;;;;;;;;5004395;28;20116;-82
2023/03/20 05:45:24;;;;;;;18.98;10.05;;;;;;;;;;5005097;28;20123;-82
2023/03/20 05:47:51;;;;;;;16.08;10.13;;;;;;;;;;5025332;28;20045;-81
2023/03/20 05:50:17;;;;;;;15.13;9.95;;;;;;;;;;4999090;28;20128;-82
2023/03/20 05:52:46;;;;;;;20.88;10.93;;;;;;;;;;5017268;28;20069;-81
2023/03/20 05:55:12;;;;;;;17.10;10.40;;;;;;;;;;4997643;28;20041;-81
2023/03/20 05:57:38;;;;;;;19.95;10.02;;;;;;;;;;5017609;28;20124;-81
2023/03/20 06:00:04;;;;;;;18.98;10.23;;;;;;;;;;5003314;28;20060;-81
2023/03/20 06:02:30;;;;;;;15.88;9.70;;;;;;;;;;4999452;28;20041;-81
2023/03/20 06:04:56;;;;;;;19.80;10.98;;;;;;;;;;5012711;28;20033;-81
2023/03/20 06:07:22;;;;;;;18.33;10.68;;;;;;;;;;4998681;28;20044;-81
2023/03/20 06:09:49;;;;;;;19.70;10.48;;;;;;;;;;5004577;28;20892;-81
2023/03/20 06:12:16;;;;;;;22.77;11.45;;;;;;;;;;5003285;28;20052;-81
2023/03/20 06:14:42;;;;;;;14.88;7.25;;;;;;;;;;5018892;28;20119;-82
2023/03/20 06:17:08;;;;;;;20.35;9.95;;;;;;;;;;5016182;28;20119;-81
2023/03/20 06:19:34;;;;;;;18.77;9.77;;;;;;;;;;5010786;28;20574;-82
2023/03/20 06:22:00;;;;;;;17.33;9.88;;;;;;;;;;5006056;28;20548;-82
2023/03/20 06:24:26;;;;;;;18.50;9.82;;;;;;;;;;5007207;28;20132;-81
2023/03/20 06:26:52;;;;;;;17.35;10.20;;;;;;;;;;5008140;28;20155;-81
2023/03/20 06:29:19;;;;;;;18.52;10.15;;;;;;;;;;5008291;28;20430;-81
2023/03/20 06:31:45;;;;;;;17.65;10.18;;;;;;;;;;5003315;28;20493;-82
2023/03/20 06:34:11;;;;;;;20.23;9.73;;;;;;;;;;5019034;28;20052;-82
2023/03/20 06:36:37;;;;;;;17.25;8.88;;;;;;;;;;5017836;28;20041;-81
2023/03/20 06:39:03;;;;;;;21.48;10.30;;;;;;;;;;5002904;28;20058;-82
2023/03/20 06:41:29;;;;;;;17.63;9.27;;;;;;;;;;5007490;28;20046;-82
2023/03/20 06:43:56;;;;;;;16.17;8.85;;;;;;;;;;5008836;28;20045;-82
2023/03/20 06:46:22;;;;;;;17.48;9.75;;;;;;;;;;5005876;28;20427;-81
2023/03/20 06:48:48;;;;;;;16.98;8.68;;;;;;;;;;5006084;28;20059;-82
2023/03/20 06:51:14;;;;;;;15.32;9.90;;;;;;;;;;5004343;28;21573;-82
2023/03/20 06:53:42;;;;;;;18.63;8.60;;;;;;;;;;4996290;28;20043;-82
2023/03/20 06:56:09;;;;;;;16.88;8.70;;;;;;;;;;4997423;28;20061;-82
2023/03/20 06:58:35;;;;;;;15.50;8.65;;;;;;;;;;5012259;28;20056;-82
2023/03/20 07:01:02;;;;;;;16.15;8.30;;;;;;;;;;5011379;28;20706;-82
2023/03/20 07:03:29;;;;;;;16.20;8.52;;;;;;;;;;4989925;28;20708;-82
2023/03/20 07:05:55;;;;;;;18.10;7.82;;;;;;;;;;5005314;28;20389;-81
2023/03/20 07:08:21;;;;;;;21.45;10.55;;;;;;;;;;4981137;28;21483;-83
2023/03/20 07:10:47;;;;;;;19.80;8.85;;;;;;;;;;4978357;28;20052;-82
2023/03/20 07:13:13;;;;;;;17.33;8.65;;;;;;;;;;5009776;28;20078;-82
2023/03/20 07:15:39;;;;;;;12.25;6.85;;;;;;;;;;5010492;28;20037;-83
2023/03/20 07:18:06;;;;;;;17.88;10.13;;;;;;;;;;5023269;28;20064;-82
2023/03/20 07:20:32;;;;;;;16.13;8.98;;;;;;;;;;4990607;28;20044;-81
2023/03/20 07:22:58;;;;;;;19.80;8.55;;;;;;;;;;5003457;28;20108;-81
2023/03/20 07:25:25;;;;;;;16.30;8.63;;;;;;;;;;5019086;28;20340;-81
2023/03/20 07:27:51;;;;;;;18.63;8.65;;;;;;;;;;5016465;28;20045;-83
2023/03/20 07:30:17;;;;;;;15.63;9.27;;;;;;;;;;5010923;28;20045;-83
2023/03/20 07:32:44;;;;;;;18.17;8.82;;;;;;;;;;5002839;28;20048;-83
2023/03/20 07:35:10;;;;;;;15.75;10.23;;;;;;;;;;5002446;28;20047;-83
2023/03/20 07:37:37;;;;;;;19.02;10.20;;;;;;;;;;5021936;28;20040;-83
2023/03/20 07:40:03;;;;;;;15.85;9.15;;;;;;;;;;5010123;28;20505;-83
2023/03/20 07:42:30;;;;;;;15.95;8.88;;;;;;;;;;5033056;28;20124;-83
2023/03/20 07:44:56;;;;;;;22.98;8.85;;;;;;;;;;5015932;28;20515;-82
2023/03/20 07:47:22;;;;;;;13.90;9.02;;;;;;;;;;5002228;28;20056;-84
2023/03/20 07:49:48;;;;;;;14.85;8.75;;;;;;;;;;5010040;28;20112;-84
2023/03/20 07:52:16;;;;;;;19.10;8.90;;;;;;;;;;5017956;28;20132;-83
2023/03/20 07:54:42;;;;;;;12.63;8.20;;;;;;;;;;5002044;28;20052;-73
2023/03/20 07:57:08;;;;;;;20.80;9.18;;;;;;;;;;5022077;28;20057;-72
2023/03/20 07:59:34;;;;;;;20.55;9.57;;;;;;;;;;5020381;28;20692;-72
2023/03/20 08:02:00;;;;;;;21.25;10.88;;;;;;;;;;5020866;28;20083;-72
2023/03/20 08:04:26;;;;;;;15.15;8.15;;;;;;;;;;5015262;28;20056;-72
2023/03/20 08:06:52;;;;;;;17.98;10.27;;;;;;;;;;5017881;28;20041;-72
2023/03/20 08:09:19;;;;;;;18.25;9.13;;;;;;;;;;5017487;28;20121;-73
2023/03/20 08:11:45;;;;;;;19.10;10.55;;;;;;;;;;5021922;28;20536;-73
2023/03/20 08:14:11;;;;;;;17.08;10.25;;;;;;;;;;5019777;28;20041;-72
2023/03/20 08:16:37;;;;;;;16.42;9.48;;;;;;;;;;5021970;28;20044;-72
2023/03/20 08:19:05;;;;;;;18.40;9.50;;;;;;;;;;5018248;28;20049;-72
2023/03/20 08:21:31;;;;;;;21.20;10.70;;;;;;;;;;5022278;28;20049;-72
2023/03/20 08:23:58;;;;;;;22.42;10.75;;;;;;;;;;5002656;28;20044;-71
2023/03/20 08:26:24;;;;;;;18.75;10.55;;;;;;;;;;5020739;28;20090;-72
2023/03/20 08:28:51;;;;;;;18.10;9.60;;;;;;;;;;5020907;28;20060;-72
2023/03/20 08:31:17;;;;;;;19.55;10.52;;;;;;;;;;5020338;28;20041;-71
2023/03/20 08:33:44;;;;;;;18.17;9.50;;;;;;;;;;5020370;28;20631;-71
2023/03/20 08:36:10;;;;;;;13.25;9.30;;;;;;;;;;5021145;28;20045;-72
2023/03/20 08:38:37;;;;;;;18.13;9.13;;;;;;;;;;5020811;28;20060;-72
2023/03/20 08:41:03;;;;;;;15.70;9.05;;;;;;;;;;5020056;28;20049;-71
2023/03/20 08:43:29;;;;;;;13.52;8.57;;;;;;;;;;5019508;28;20135;-72
2023/03/20 08:45:55;;;;;;;20.13;8.95;;;;;;;;;;5022360;28;20033;-72
2023/03/20 08:48:21;;;;;;;18.95;9.52;;;;;;;;;;5019492;28;20171;-72
2023/03/20 08:50:47;;;;;;;22.52;10.27;;;;;;;;;;5020511;28;20056;-71
2023/03/20 08:53:13;;;;;;;14.80;9.15;;;;;;;;;;5020155;28;20041;-71
2023/03/20 08:55:40;;;;;;;18.83;10.18;;;;;;;;;;5021470;28;20053;-71
2023/03/20 08:58:06;;;;;;;14.60;9.95;;;;;;;;;;5004813;28;20061;-72
2023/03/20 09:00:32;;;;;;;15.65;10.07;;;;;;;;;;5002384;28;20049;-72
2023/03/20 09:02:58;;;;;;;17.13;10.32;;;;;;;;;;5026423;28;20049;-71
2023/03/20 09:05:24;;;;;;;17.70;9.75;;;;;;;;;;5027409;28;20041;-71
2023/03/20 09:07:50;;;;;;;19.80;9.40;;;;;;;;;;5025657;28;20413;-71
2023/03/20 09:10:17;;;;;;;22.15;11.32;;;;;;;;;;5019709;28;20045;-72
2023/03/20 09:12:43;;;;;;;16.98;9.13;;;;;;;;;;5020117;28;20041;-72
2023/03/20 09:15:09;;;;;;;18.25;9.80;;;;;;;;;;5025735;28;20083;-72
2023/03/20 09:17:35;;;;;;;18.10;10.60;;;;;;;;;;5017979;28;22088;-71
2023/03/20 09:20:01;;;;;;;19.35;9.80;;;;;;;;;;5016778;28;20045;-72
2023/03/20 09:22:27;;;;;;;16.85;9.82;;;;;;;;;;5021148;28;20056;-72
2023/03/20 09:24:53;;;;;;;15.43;8.52;;;;;;;;;;5019334;28;20095;-71
2023/03/20 09:27:20;;;;;;;16.45;9.80;;;;;;;;;;5018535;28;20126;-71
2023/03/20 09:29:46;;;;;;;19.08;10.45;;;;;;;;;;5019111;28;20060;-71
2023/03/20 09:32:13;;;;;;;12.68;7.88;;;;;;;;;;5018519;28;20253;-71
2023/03/20 09:34:39;;;;;;;21.05;9.93;;;;;;;;;;5020343;28;20102;-71
2023/03/20 09:37:05;;;;;;;17.50;10.77;;;;;;;;;;5017633;28;20049;-72
2023/03/20 09:39:32;;;;;;;20.02;10.00;;;;;;;;;;5018968;28;20064;-72
2023/03/20 09:42:01;;;;;;;18.77;9.70;;;;;;;;;;5021764;28;20075;-72
2023/03/20 09:44:52;;;;;;;14.38;8.50;;;;;;;;;;5002067;28;20056;-73
2023/03/20 09:47:30;;;;;;;19.17;10.18;;;;;;;;;;5020092;28;20075;-72
2023/03/20 09:50:01;;;;;;;18.63;9.05;;;;;;;;;;5018149;28;20095;-72
2023/03/20 09:52:40;;;;;;;19.40;9.65;;;;;;;;;;5017776;28;20405;-72
2023/03/20 09:55:11;;;;;;;15.20;8.38;;;;;;;;;;5016734;28;20396;-72
2023/03/20 09:57:39;;;;;;;21.83;8.95;;;;;;;;;;5019255;28;21052;-72
2023/03/20 10:00:07;;;;;;;14.25;8.95;;;;;;;;;;5019143;28;20051;-72
2023/03/20 10:02:36;;;;;;;18.95;9.43;;;;;;;;;;5023937;28;20048;-72
2023/03/20 10:05:02;;;;;;;13.70;8.43;;;;;;;;;;5019943;28;20063;-72
2023/03/20 10:07:29;;;;;;;13.77;7.35;;;;;;;;;;5017773;28;20131;-72
2023/03/20 10:09:55;;;;;;;17.33;8.85;;;;;;;;;;5016458;28;20088;-72
2023/03/20 10:12:38;;;;;;;14.85;6.97;;;;;;;;;;5018977;28;20041;-72
2023/03/20 10:15:16;;;;;;;12.25;8.00;;;;;;;;;;5018937;28;20124;-72
2023/03/20 10:17:43;;;;;;;16.52;7.78;;;;;;;;;;5019791;28;20049;-72
2023/03/20 10:20:09;;;;;;;14.75;7.50;;;;;;;;;;5017536;28;20488;-72
2023/03/20 10:22:40;;;;;;;13.40;6.70;;;;;;;;;;5002592;28;20072;-72
2023/03/20 10:25:12;;;;;;;13.68;6.50;;;;;;;;;;5018456;28;20052;-72
2023/03/20 10:27:42;;;;;;;13.18;7.35;;;;;;;;;;5001849;28;20048;-72
2023/03/20 10:30:26;;;;;;;15.63;7.90;;;;;;;;;;5004475;28;20057;-82
2023/03/20 10:32:59;;;;;;;15.43;8.23;;;;;;;;;;5014793;28;20037;-80
2023/03/20 10:35:28;;;;;;;16.27;8.60;;;;;;;;;;5021119;28;20118;-81
2023/03/20 10:38:01;;;;;;;14.43;7.50;;;;;;;;;;5016239;28;20071;-80
2023/03/20 10:40:34;;;;;;;15.13;7.40;;;;;;;;;;5032349;28;20037;-81
2023/03/20 10:43:09;;;;;;;16.42;7.43;;;;;;;;;;5027426;28;20049;-80
2023/03/20 10:45:38;;;;;;;12.70;7.20;;;;;;;;;;5006885;28;20072;-81
2023/03/20 10:48:07;;;;;;;20.45;9.32;;;;;;;;;;5015969;28;20048;-82
2023/03/20 10:50:43;;;;;;;20.08;8.60;;;;;;;;;;5029230;28;20489;-82
2023/03/20 10:53:18;;;;;;;19.02;9.20;;;;;;;;;;5007497;28;20037;-82
2023/03/20 10:55:44;;;;;;;19.92;7.93;;;;;;;;;;5037369;28;20057;-82
2023/03/20 10:58:17;;;;;;;17.23;7.70;;;;;;;;;;5023720;28;20045;-82
2023/03/20 11:00:43;;;;;;;12.20;6.72;;;;;;;;;;5021192;28;20033;-82
2023/03/20 11:03:16;;;;;;;21.08;8.32;;;;;;;;;;5024350;28;20142;-82
2023/03/20 11:05:43;;;;;;;15.52;7.88;;;;;;;;;;5024555;28;20056;-82
2023/03/20 11:08:14;;;;;;;15.68;8.52;;;;;;;;;;5033241;28;20045;-80
2023/03/20 11:10:41;;;;;;;13.35;8.00;;;;;;;;;;5010191;28;20821;-82
2023/03/20 11:13:18;;;;;;;15.40;8.00;;;;;;;;;;5010137;28;20069;-81
2023/03/20 11:15:44;;;;;;;13.52;7.32;;;;;;;;;;5030759;28;20693;-81
2023/03/20 11:18:14;;;;;;;19.77;7.82;;;;;;;;;;5008693;28;20041;-81
2023/03/20 11:20:44;;;;;;;16.88;8.10;;;;;;;;;;5023021;28;20600;-81
2023/03/20 11:23:14;;;;;;;15.52;7.75;;;;;;;;;;5009158;28;20037;-81
2023/03/20 11:25:47;;;;;;;18.92;8.65;;;;;;;;;;5011841;28;20053;-81
2023/03/20 11:28:19;;;;;;;15.88;8.35;;;;;;;;;;5018642;28;20052;-81
2023/03/20 11:30:46;;;;;;;16.55;7.65;;;;;;;;;;5024302;28;20041;-81
2023/03/20 11:33:12;;;;;;;10.50;6.95;;;;;;;;;;5007678;28;20163;-82
2023/03/20 11:35:38;;;;;;;17.63;7.25;;;;;;;;;;5009041;28;20041;-81
2023/03/20 11:38:16;;;;;;;17.60;7.18;;;;;;;;;;5014844;28;20523;-81
2023/03/20 11:40:42;;;;;;;15.05;6.78;;;;;;;;;;5010582;28;20051;-82
2023/03/20 11:43:18;;;;;;;14.38;6.95;;;;;;;;;;5025869;28;20119;-81
2023/03/20 11:45:45;;;;;;;14.45;7.15;;;;;;;;;;5023935;28;20048;-81
2023/03/20 11:48:22;;;;;;;18.48;7.50;;;;;;;;;;5024331;28;20037;-81
2023/03/20 11:50:51;;;;;;;13.27;7.70;;;;;;;;;;5024982;28;20045;-81
2023/03/20 11:53:17;;;;;;;15.13;7.32;;;;;;;;;;5027117;28;20112;-81
2023/03/20 11:55:46;;;;;;;10.52;5.95;;;;;;;;;;5029217;28;20045;-81
2023/03/20 11:58:16;;;;;;;14.77;7.38;;;;;;;;;;5006698;28;20041;-81
2023/03/20 12:00:42;;;;;;;16.13;7.30;;;;;;;;;;5007349;28;20092;-82
2023/03/20 12:03:47;;;;;;;19.73;7.75;;;;;;;;;;5020044;28;20037;-82
2023/03/20 12:06:16;;;;;;;18.33;7.88;;;;;;;;;;4988292;28;20040;-81
2023/03/20 12:08:45;;;;;;;18.60;8.25;;;;;;;;;;5013749;28;20123;-82
2023/03/20 12:11:26;;;;;;;15.65;7.78;;;;;;;;;;5002524;28;20060;-81
2023/03/20 12:13:53;;;;;;;16.27;7.72;;;;;;;;;;5007975;28;20127;-81
2023/03/20 12:16:23;;;;;;;16.67;7.60;;;;;;;;;;5011303;28;20033;-81
2023/03/20 12:18:59;;;;;;;15.18;6.32;;;;;;;;;;5013120;28;20073;-81
2023/03/20 12:21:36;;;;;;;14.82;6.20;;;;;;;;;;5037464;28;20118;-80
2023/03/20 12:24:05;;;;;;;11.95;5.15;;;;;;;;;;5028947;28;20041;-80
2023/03/20 12:26:34;;;;;;;12.68;4.65;;;;;;;;;;5013004;28;20047;-81
2023/03/20 12:29:00;;;;;;;8.43;4.80;;;;;;;;;;5025030;28;20095;-82
2023/03/20 12:31:26;;;;;;;7.35;3.58;;;;;;;;;;5024978;28;20065;-82
2023/03/20 12:34:03;;;;;;;11.07;4.88;;;;;;;;;;5027339;28;20047;-82
2023/03/20 12:36:31;;;;;;;9.00;4.25;;;;;;;;;;5020135;28;20038;-81
2023/03/20 12:38:58;;;;;;;11.00;5.35;;;;;;;;;;5010749;28;20049;-81
2023/03/20 12:41:38;;;;;;;17.65;6.55;;;;;;;;;;5003049;28;20061;-81
2023/03/20 12:44:20;;;;;;;16.58;7.03;;;;;;;;;;5011266;28;20053;-82
2023/03/20 12:46:49;;;;;;;10.40;5.85;;;;;;;;;;5021157;28;20099;-81
2023/03/20 12:49:25;;;;;;;16.27;7.07;;;;;;;;;;5014583;28;20041;-81
2023/03/20 12:52:00;;;;;;;12.52;7.28;;;;;;;;;;5021529;28;20052;-80
2023/03/20 12:54:40;;;;;;;17.33;6.93;;;;;;;;;;5011741;28;20070;-81
2023/03/20 12:57:14;;;;;;;14.63;7.40;;;;;;;;;;5006953;28;20143;-81
2023/03/20 12:59:40;;;;;;;;;;;;;;;;;;5022056;28;20119;-80
2023/03/20 13:02:12;;;;;;;9.70;6.40;;;;;;;;;;5006434;28;20377;-81
2023/03/20 13:04:59;;;;;;;11.43;7.53;;;;;;;;;;5009332;28;20128;-81
2023/03/20 13:07:41;;;;;;;18.92;7.35;;;;;;;;;;5005978;28;20429;-81
2023/03/20 13:10:20;;;;;;;9.85;6.18;;;;;;;;;;5021721;28;22110;-81
2023/03/20 13:12:49;;;;;;;9.50;6.80;;;;;;;;;;5021963;28;20056;-81
2023/03/20 13:15:18;;;;;;;11.30;5.38;;;;;;;;;;5006429;28;20117;-80
2023/03/20 13:17:50;;;;;;;9.05;5.03;;;;;;;;;;5004459;28;20156;-80
2023/03/20 13:20:28;;;;;;;11.18;4.32;;;;;;;;;;5018835;28;20068;-81
2023/03/20 13:22:57;;;;;;;8.52;4.05;;;;;;;;;;5017623;28;20049;-81
2023/03/20 13:25:23;;;;;;;9.05;5.28;;;;;;;;;;5004751;28;20045;-82
2023/03/20 13:27:54;;;;;;;13.25;4.70;;;;;;;;;;5023445;28;20126;-82
2023/03/20 13:30:34;;;;;;;13.43;4.57;;;;;;;;;;5005215;28;20041;-83
2023/03/20 13:33:03;;;;;;;14.05;4.88;;;;;;;;;;5008059;28;21899;-82
2023/03/20 13:35:29;;;;;;;14.18;4.68;;;;;;;;;;5013564;28;20072;-83
2023/03/20 13:38:16;;;;;;;11.77;5.47;;;;;;;;;;5004797;28;20072;-84
2023/03/20 13:40:44;;;;;;;9.23;4.35;;;;;;;;;;4998796;28;20075;-82
2023/03/20 13:43:10;;;;;;;13.05;4.82;;;;;;;;;;5015053;28;20052;-82
2023/03/20 13:45:37;;;;;;;10.40;5.22;;;;;;;;;;5001641;28;20042;-82
2023/03/20 13:48:24;;;;;;;10.45;5.00;;;;;;;;;;5013050;28;20152;-81
2023/03/20 13:51:05;;;;;;;7.38;4.65;;;;;;;;;;4998639;28;20075;-81
2023/03/20 13:53:44;;;;;;;9.90;4.88;;;;;;;;;;5013659;28;20056;-82
2023/03/20 13:56:29;;;;;;;8.10;5.13;;;;;;;;;;4996815;28;20056;-79
2023/03/20 13:58:57;;;;;;;11.32;5.78;;;;;;;;;;4996215;28;20662;-80
2023/03/20 14:01:30;;;;;;;10.65;4.95;;;;;;;;;;5012119;28;20059;-79
2023/03/20 14:03:56;;;;;;;10.88;5.95;;;;;;;;;;4999177;28;20187;-81
2023/03/20 14:06:31;;;;;;;17.13;6.43;;;;;;;;;;5017135;28;20040;-81
2023/03/20 14:08:58;;;;;;;10.57;6.40;;;;;;;;;;5001223;28;20045;-81
2023/03/20 14:11:31;;;;;;;10.80;6.05;;;;;;;;;;5006289;28;20045;-83
2023/03/20 14:14:12;;;;;;;11.00;7.22;;;;;;;;;;5000142;28;20038;-83
2023/03/20 14:16:39;;;;;;;12.45;6.70;;;;;;;;;;5012431;28;20049;-80
2023/03/20 14:19:08;;;;;;;11.48;8.48;;;;;;;;;;4981963;28;20059;-80
2023/03/20 14:21:35;;;;;;;13.98;7.88;;;;;;;;;;4996197;28;20104;-82
2023/03/20 14:24:06;;;;;;;14.50;8.43;;;;;;;;;;4997780;28;20134;-78
2023/03/20 14:26:35;;;;;;;13.23;8.13;;;;;;;;;;5011902;28;20073;-81
2023/03/20 14:29:18;;;;;;;11.45;7.22;;;;;;;;;;5012832;28;20057;-81
2023/03/20 14:31:48;;;;;;;11.70;8.18;;;;;;;;;;4999370;28;20464;-81
2023/03/20 14:34:24;;;;;;;13.90;9.10;;;;;;;;;;4998858;28;20699;-81
2023/03/20 14:36:52;;;;;;;15.68;10.25;;;;;;;;;;5012128;28;20037;-82
2023/03/20 14:39:37;;;;;;;11.63;9.20;;;;;;;;;;5013665;28;20052;-81
2023/03/20 14:42:03;;;;;;;14.60;9.68;;;;;;;;;;5017476;28;20040;-81